Time;durP1;ratioP1;P1;durP2;ratioP2;P2;SDS_P1;SDS_P2;PMS_P1;PMS_P2;Temp;Humidity;BMP_temperature;BMP_pressure;BME280_temperature;BME280_humidity;BME280_pressure;Samples;Min_cycle;Max_cycle;Signal;HPM_P1;HPM_P2
2024/03/07 00:00:16;;;;;;;14.37;12.90;;;3.90;99.90;;;;;;5161918;27;20930;-77
2024/03/07 00:02:47;;;;;;;15.00;12.93;;;3.90;99.90;;;;;;5180288;27;20465;-78
2024/03/07 00:05:17;;;;;;;14.83;13.47;;;3.90;99.90;;;;;;5161087;27;20471;-78
2024/03/07 00:07:46;;;;;;;14.90;13.40;;;3.90;99.90;;;;;;5179887;27;20472;-78
2024/03/07 00:10:15;;;;;;;13.97;12.57;;;3.80;99.90;;;;;;5161126;27;20487;-78
2024/03/07 00:12:44;;;;;;;14.00;12.60;;;3.80;99.90;;;;;;5179783;27;20429;-77
2024/03/07 00:15:15;;;;;;;14.27;12.87;;;3.70;99.90;;;;;;5179917;27;20485;-77
2024/03/07 00:17:43;;;;;;;14.00;12.70;;;3.70;99.90;;;;;;5160545;27;20936;-77
2024/03/07 00:20:15;;;;;;;14.70;13.00;;;3.70;99.90;;;;;;5160763;27;20440;-78
2024/03/07 00:22:44;;;;;;;13.33;12.03;;;3.60;99.90;;;;;;5179856;27;20513;-77
2024/03/07 00:25:13;;;;;;;14.73;12.33;;;3.60;99.90;;;;;;5179095;27;20460;-76
2024/03/07 00:27:44;;;;;;;14.27;12.90;;;3.60;99.90;;;;;;5178484;27;20444;-78
2024/03/07 00:30:18;;;;;;;13.93;12.53;;;3.50;99.90;;;;;;5159491;27;20473;-78
2024/03/07 00:32:47;;;;;;;15.97;13.73;;;3.50;99.90;;;;;;5161696;27;20452;-78
2024/03/07 00:35:16;;;;;;;14.40;12.43;;;3.40;99.90;;;;;;5160552;27;20449;-78
2024/03/07 00:37:45;;;;;;;14.03;12.63;;;3.40;99.90;;;;;;5179722;27;20943;-77
2024/03/07 00:40:13;;;;;;;16.03;14.43;;;3.40;99.90;;;;;;5179009;27;20456;-77
2024/03/07 00:42:42;;;;;;;15.93;14.23;;;3.40;99.90;;;;;;5160519;27;20437;-79
2024/03/07 00:45:11;;;;;;;15.30;13.70;;;3.30;99.90;;;;;;5162430;27;20444;-79
2024/03/07 00:47:41;;;;;;;14.57;12.90;;;3.30;99.90;;;;;;5159514;27;20444;-79
2024/03/07 00:50:11;;;;;;;16.30;14.60;;;3.30;99.90;;;;;;5177007;27;20427;-77
2024/03/07 00:52:39;;;;;;;16.20;14.53;;;3.20;99.90;;;;;;5158199;27;20504;-78
2024/03/07 00:55:09;;;;;;;16.77;14.93;;;3.20;99.90;;;;;;5158073;27;20444;-78
2024/03/07 00:57:38;;;;;;;16.70;14.90;;;3.20;99.90;;;;;;5178276;27;20797;-78
2024/03/07 01:00:13;;;;;;;16.50;14.90;;;3.20;99.90;;;;;;5157470;27;20989;-78
2024/03/07 01:02:45;;;;;;;18.23;16.10;;;3.10;99.90;;;;;;5177553;27;20476;-78
2024/03/07 01:05:14;;;;;;;17.10;15.50;;;3.10;99.90;;;;;;5158620;27;20440;-78
2024/03/07 01:07:44;;;;;;;18.73;16.43;;;3.10;99.90;;;;;;5158933;27;20447;-78
2024/03/07 01:10:13;;;;;;;18.10;16.27;;;3.00;99.90;;;;;;5159899;27;20497;-78
2024/03/07 01:12:43;;;;;;;17.47;15.77;;;3.00;99.90;;;;;;5159849;27;20504;-77
2024/03/07 01:15:11;;;;;;;21.40;16.53;;;3.00;99.90;;;;;;5160011;27;20445;-78
2024/03/07 01:17:40;;;;;;;16.40;14.80;;;2.90;99.90;;;;;;5158374;27;20975;-77
2024/03/07 01:20:11;;;;;;;16.60;14.90;;;2.90;99.90;;;;;;5157791;27;20433;-79
2024/03/07 01:22:40;;;;;;;18.00;16.20;;;2.90;99.90;;;;;;5158227;27;20440;-78
2024/03/07 01:25:09;;;;;;;17.63;15.80;;;2.80;99.90;;;;;;5177388;27;20487;-77
2024/03/07 01:27:37;;;;;;;17.00;15.40;;;2.80;99.90;;;;;;5157543;27;20476;-76
2024/03/07 01:30:07;;;;;;;18.03;16.13;;;2.80;99.90;;;;;;5158200;27;20464;-77
2024/03/07 01:32:36;;;;;;;18.00;16.10;;;2.70;99.90;;;;;;5158473;27;20522;-78
2024/03/07 01:35:07;;;;;;;17.70;15.70;;;2.70;99.90;;;;;;5158436;27;20937;-78
2024/03/07 01:37:37;;;;;;;18.77;15.40;;;2.70;99.90;;;;;;5177032;27;20424;-78
2024/03/07 01:40:06;;;;;;;18.13;16.20;;;2.70;99.90;;;;;;5158301;27;20879;-78
2024/03/07 01:42:35;;;;;;;16.83;15.10;;;2.60;99.90;;;;;;5158306;27;20441;-78
2024/03/07 01:45:04;;;;;;;17.03;15.30;;;2.60;99.90;;;;;;5177190;27;20429;-78
2024/03/07 01:47:32;;;;;;;17.70;15.90;;;2.60;99.90;;;;;;5157595;27;20493;-76
2024/03/07 01:50:01;;;;;;;18.37;14.50;;;2.50;99.90;;;;;;5158013;27;20460;-77
2024/03/07 01:52:30;;;;;;;18.20;16.30;;;2.50;99.90;;;;;;5158152;27;20855;-77
2024/03/07 01:55:02;;;;;;;17.20;15.50;;;2.50;99.90;;;;;;5157795;27;20449;-76
2024/03/07 01:57:31;;;;;;;18.17;16.27;;;2.50;99.90;;;;;;5176813;27;20423;-77
2024/03/07 02:00:03;;;;;;;19.07;16.93;;;2.50;99.90;;;;;;5158206;27;20885;-77
2024/03/07 02:02:34;;;;;;;18.13;16.17;;;2.40;99.90;;;;;;5176937;27;20443;-77
2024/03/07 02:05:02;;;;;;;19.07;16.27;;;2.30;99.90;;;;;;5157700;27;20444;-77
2024/03/07 02:07:31;;;;;;;19.57;17.60;;;2.30;99.90;;;;;;5157696;27;20995;-77
2024/03/07 02:10:03;;;;;;;19.43;17.53;;;2.30;99.90;;;;;;5157786;27;20516;-77
2024/03/07 02:12:32;;;;;;;20.67;18.67;;;2.30;99.90;;;;;;5161267;27;20429;-76
2024/03/07 02:15:00;;;;;;;20.40;18.20;;;2.20;99.90;;;;;;5161810;27;20967;-77
2024/03/07 02:17:29;;;;;;;21.90;19.67;;;2.20;99.90;;;;;;5161702;27;20456;-77
2024/03/07 02:19:58;;;;;;;20.33;18.33;;;2.20;99.90;;;;;;5161537;27;20452;-77
2024/03/07 02:22:28;;;;;;;24.97;21.73;;;2.10;99.90;;;;;;5161647;27;20455;-77
2024/03/07 02:24:56;;;;;;;23.33;20.70;;;2.20;99.90;;;;;;5161504;27;20493;-77
2024/03/07 02:27:25;;;;;;;24.00;21.03;;;2.10;99.90;;;;;;5161322;27;20536;-77
2024/03/07 02:29:53;;;;;;;19.83;17.80;;;2.10;99.90;;;;;;5161370;27;20463;-77
2024/03/07 02:32:23;;;;;;;27.70;23.53;;;2.10;99.90;;;;;;5179897;27;20801;-76
2024/03/07 02:34:51;;;;;;;26.17;22.90;;;2.10;99.90;;;;;;5161246;27;20519;-77
2024/03/07 02:37:19;;;;;;;27.90;23.97;;;2.00;99.90;;;;;;5161075;27;20551;-77
2024/03/07 02:39:50;;;;;;;32.03;27.20;;;2.00;99.90;;;;;;5161092;27;21126;-77
2024/03/07 02:42:19;;;;;;;33.23;25.80;;;2.00;99.90;;;;;;5179533;27;20453;-77
2024/03/07 02:44:47;;;;;;;44.70;32.43;;;1.90;99.90;;;;;;5160649;27;20461;-76
2024/03/07 02:47:17;;;;;;;41.40;31.27;;;1.90;99.90;;;;;;5179491;27;20463;-77
2024/03/07 02:49:45;;;;;;;39.07;30.50;;;1.90;99.90;;;;;;5160834;27;20979;-76
2024/03/07 02:52:14;;;;;;;50.93;35.57;;;1.90;99.90;;;;;;5160884;27;20451;-76
2024/03/07 02:54:42;;;;;;;48.57;32.80;;;1.90;99.90;;;;;;5160501;27;20447;-77
2024/03/07 02:57:12;;;;;;;53.67;34.10;;;1.90;99.90;;;;;;5160532;27;20443;-77
2024/03/07 02:59:41;;;;;;;58.57;37.40;;;1.90;99.90;;;;;;5160410;27;20490;-77
2024/03/07 03:02:09;;;;;;;51.73;36.50;;;1.90;99.90;;;;;;5160248;27;20449;-77
2024/03/07 03:04:38;;;;;;;44.70;32.43;;;1.90;99.90;;;;;;5160345;27;20940;-77
2024/03/07 03:07:06;;;;;;;50.10;33.57;;;1.90;99.90;;;;;;5160354;27;20476;-77
2024/03/07 03:09:39;;;;;;;49.63;32.80;;;1.90;99.90;;;;;;5160452;27;20522;-76
2024/03/07 03:12:08;;;;;;;55.10;36.77;;;1.90;99.90;;;;;;5160424;27;20483;-77
2024/03/07 03:14:39;;;;;;;67.47;33.70;;;1.90;99.90;;;;;;5160052;27;20448;-77
2024/03/07 03:17:08;;;;;;;63.80;33.40;;;1.90;99.90;;;;;;5160453;27;20439;-77
2024/03/07 03:19:37;;;;;;;67.43;38.60;;;1.90;99.90;;;;;;5159925;27;20805;-76
2024/03/07 03:22:08;;;;;;;78.63;38.10;;;1.90;99.90;;;;;;5159703;27;20452;-76
2024/03/07 03:24:37;;;;;;;62.80;35.53;;;1.90;99.90;;;;;;5159924;27;20459;-76
2024/03/07 03:27:05;;;;;;;65.47;35.83;;;1.90;99.90;;;;;;5178068;27;20471;-77
2024/03/07 03:29:34;;;;;;;81.77;40.63;;;1.90;99.90;;;;;;5159987;27;20462;-76
2024/03/07 03:32:04;;;;;;;61.50;36.80;;;1.90;99.90;;;;;;5159287;27;20430;-76
2024/03/07 03:34:33;;;;;;;80.13;41.30;;;1.90;99.90;;;;;;5159781;27;20237;-76
2024/03/07 03:37:01;;;;;;;81.90;39.20;;;1.90;99.90;;;;;;5159481;27;20784;-76
2024/03/07 03:39:30;;;;;;;54.80;37.33;;;1.90;99.90;;;;;;5159527;27;20498;-77
2024/03/07 03:41:58;;;;;;;58.77;38.90;;;1.90;99.90;;;;;;5159346;27;20949;-76
2024/03/07 03:44:27;;;;;;;58.53;39.37;;;2.00;99.90;;;;;;5159526;27;20535;-76
2024/03/07 03:46:55;;;;;;;60.30;40.97;;;2.00;99.90;;;;;;5178231;27;20922;-77
2024/03/07 03:49:25;;;;;;;77.57;39.47;;;2.00;99.90;;;;;;5159232;27;20464;-76
2024/03/07 03:51:54;;;;;;;59.63;38.90;;;2.00;99.90;;;;;;5159234;27;20449;-76
2024/03/07 03:54:22;;;;;;;64.53;38.63;;;2.10;99.90;;;;;;5159150;27;20467;-76
2024/03/07 03:56:51;;;;;;;65.17;38.80;;;2.00;99.90;;;;;;5159131;27;20444;-76
2024/03/07 03:59:20;;;;;;;57.90;36.47;;;2.10;99.90;;;;;;5159560;27;20985;-77
2024/03/07 04:01:49;;;;;;;83.37;37.50;;;2.10;99.90;;;;;;5159863;27;20455;-77
2024/03/07 04:04:18;;;;;;;86.03;37.60;;;2.10;99.90;;;;;;5159582;27;20468;-77
2024/03/07 04:06:48;;;;;;;59.00;36.30;;;2.20;99.90;;;;;;5178180;27;20433;-77
2024/03/07 04:09:16;;;;;;;69.90;40.47;;;2.10;99.90;;;;;;5178007;27;20468;-77
2024/03/07 04:11:46;;;;;;;69.93;39.00;;;2.20;99.90;;;;;;5159599;27;20478;-77
2024/03/07 04:14:15;;;;;;;68.93;38.63;;;2.20;99.90;;;;;;5159579;27;20455;-77
2024/03/07 04:16:44;;;;;;;74.60;38.50;;;2.20;99.90;;;;;;5159394;27;20440;-77
2024/03/07 04:19:13;;;;;;;72.17;39.13;;;2.30;99.90;;;;;;5159380;27;20502;-77
2024/03/07 04:21:41;;;;;;;58.27;38.20;;;2.20;99.90;;;;;;5159383;27;20534;-77
2024/03/07 04:24:12;;;;;;;64.97;38.23;;;2.20;99.90;;;;;;5159463;27;20448;-77
2024/03/07 04:26:41;;;;;;;91.47;43.07;;;2.20;99.90;;;;;;5159008;27;20439;-77
2024/03/07 04:29:10;;;;;;;62.10;38.90;;;2.30;99.90;;;;;;5158599;27;20476;-77
2024/03/07 04:31:39;;;;;;;80.23;39.83;;;2.30;99.90;;;;;;5158939;27;20455;-77
2024/03/07 04:34:09;;;;;;;82.00;41.30;;;2.30;99.90;;;;;;5158395;27;20480;-77
2024/03/07 04:36:37;;;;;;;61.70;37.60;;;2.30;99.90;;;;;;5158791;27;20475;-77
2024/03/07 04:39:14;;;;;;;96.27;41.23;;;2.30;99.90;;;;;;5158739;27;20461;-77
2024/03/07 04:41:44;;;;;;;75.10;39.47;;;2.30;99.90;;;;;;5158798;27;20432;-77
2024/03/07 04:44:12;;;;;;;64.53;39.83;;;2.30;99.90;;;;;;5177339;27;20440;-76
2024/03/07 04:46:44;;;;;;;87.33;42.90;;;2.30;99.90;;;;;;5158592;27;20429;-76
2024/03/07 04:49:13;;;;;;;83.50;41.23;;;2.40;99.90;;;;;;5158524;27;20479;-77
2024/03/07 04:51:43;;;;;;;102.37;46.50;;;2.40;99.90;;;;;;5158399;27;20437;-76
2024/03/07 04:54:11;;;;;;;97.37;41.83;;;2.40;99.90;;;;;;5157877;27;20891;-79
2024/03/07 04:56:39;;;;;;;68.20;42.37;;;2.40;99.90;;;;;;5157880;27;20439;-75
2024/03/07 04:59:11;;;;;;;94.50;44.80;;;2.40;99.90;;;;;;5177925;27;20480;-78
2024/03/07 05:01:40;;;;;;;73.10;43.40;;;2.40;99.90;;;;;;5158548;27;20913;-77
2024/03/07 05:04:08;;;;;;;75.63;45.00;;;2.50;99.90;;;;;;5158229;27;20451;-77
2024/03/07 05:06:37;;;;;;;98.87;46.10;;;2.40;99.90;;;;;;5158100;27;20536;-78
2024/03/07 05:09:08;;;;;;;84.60;43.93;;;2.50;99.90;;;;;;5158135;27;20482;-77
2024/03/07 05:11:37;;;;;;;77.80;44.27;;;2.50;99.90;;;;;;5158125;27;20492;-77
2024/03/07 05:14:07;;;;;;;75.97;44.70;;;2.50;99.90;;;;;;5158091;27;20452;-78
2024/03/07 05:16:37;;;;;;;85.67;46.03;;;2.50;99.90;;;;;;5157827;27;20449;-76
2024/03/07 05:19:08;;;;;;;98.73;45.80;;;2.60;99.90;;;;;;5158301;27;20453;-77
2024/03/07 05:21:40;;;;;;;75.40;43.43;;;2.60;99.90;;;;;;5157910;27;20444;-77
2024/03/07 05:24:09;;;;;;;102.50;44.97;;;2.60;99.90;;;;;;5177038;27;20425;-76
2024/03/07 05:26:40;;;;;;;106.83;47.23;;;2.60;99.90;;;;;;5157910;27;20444;-76
2024/03/07 05:29:09;;;;;;;100.00;50.80;;;2.60;99.90;;;;;;5158370;27;20477;-77
2024/03/07 05:31:46;;;;;;;88.63;47.30;;;2.60;99.90;;;;;;5157920;27;20449;-77
2024/03/07 05:34:18;;;;;;;89.07;45.90;;;2.60;99.90;;;;;;5157935;27;20462;-78
2024/03/07 05:36:48;;;;;;;92.43;48.77;;;2.60;99.90;;;;;;5157913;27;20461;-76
2024/03/07 05:39:18;;;;;;;93.70;50.90;;;2.60;99.90;;;;;;5157725;27;20475;-78
2024/03/07 05:41:48;;;;;;;101.90;49.30;;;2.60;99.90;;;;;;5157679;27;20437;-77
2024/03/07 05:44:16;;;;;;;100.90;48.97;;;2.60;99.90;;;;;;5157768;27;20543;-78
2024/03/07 05:46:48;;;;;;;117.03;54.23;;;2.70;99.90;;;;;;5161999;27;20454;-78
2024/03/07 05:49:17;;;;;;;97.63;51.53;;;2.70;99.90;;;;;;5162101;27;20507;-77
2024/03/07 05:51:47;;;;;;;104.70;50.13;;;2.70;99.90;;;;;;5161992;27;20444;-78
2024/03/07 05:54:16;;;;;;;109.17;55.27;;;2.70;99.90;;;;;;5180736;27;20439;-77
2024/03/07 05:56:44;;;;;;;99.40;52.30;;;2.70;99.90;;;;;;5161642;27;21000;-78
2024/03/07 05:59:12;;;;;;;76.90;47.60;;;2.70;99.90;;;;;;5161663;27;20464;-76
2024/03/07 06:01:41;;;;;;;80.20;44.30;;;2.70;99.90;;;;;;5161850;27;20447;-77
2024/03/07 06:04:12;;;;;;;78.30;41.77;;;2.70;99.90;;;;;;5161687;27;20484;-78
2024/03/07 06:06:41;;;;;;;92.83;46.57;;;2.70;99.90;;;;;;5161719;27;20459;-77
2024/03/07 06:09:13;;;;;;;89.43;45.20;;;2.70;99.90;;;;;;5161468;27;20987;-76
2024/03/07 06:11:43;;;;;;;88.73;44.80;;;2.70;99.90;;;;;;5161618;27;20438;-77
2024/03/07 06:14:13;;;;;;;88.37;47.23;;;2.80;99.90;;;;;;5161514;27;20435;-76
2024/03/07 06:16:42;;;;;;;94.57;49.63;;;2.80;99.90;;;;;;5180200;27;20455;-78
2024/03/07 06:19:12;;;;;;;87.97;46.47;;;2.80;99.90;;;;;;5161234;27;20453;-77
2024/03/07 06:21:41;;;;;;;96.60;53.23;;;2.80;99.90;;;;;;5161899;27;20870;-77
2024/03/07 06:24:14;;;;;;;90.57;50.00;;;2.80;99.90;;;;;;5179900;27;20484;-77
2024/03/07 06:26:49;;;;;;;98.10;50.10;;;2.90;99.90;;;;;;5161272;27;20447;-77
2024/03/07 06:29:18;;;;;;;89.67;51.17;;;2.90;99.90;;;;;;5179703;27;20474;-78
2024/03/07 06:31:47;;;;;;;93.90;49.50;;;2.90;99.90;;;;;;5161149;27;20500;-78
2024/03/07 06:34:17;;;;;;;82.63;49.07;;;2.90;99.90;;;;;;5161364;27;20444;-77
2024/03/07 06:36:46;;;;;;;76.43;43.40;;;2.90;99.90;;;;;;5160879;27;20451;-78
2024/03/07 06:39:15;;;;;;;75.93;43.80;;;2.90;99.90;;;;;;5160775;27;20468;-77
2024/03/07 06:41:45;;;;;;;73.83;45.40;;;2.90;99.90;;;;;;5160705;27;20447;-77
2024/03/07 06:44:14;;;;;;;69.30;42.47;;;3.00;99.90;;;;;;5161450;27;20449;-77
2024/03/07 06:46:42;;;;;;;71.70;45.80;;;3.00;99.90;;;;;;5160794;27;20644;-76
2024/03/07 06:49:15;;;;;;;68.60;42.23;;;3.00;99.90;;;;;;5160085;27;20840;-76
2024/03/07 06:51:45;;;;;;;62.27;45.00;;;3.10;99.90;;;;;;5160062;27;20441;-77
2024/03/07 06:54:15;;;;;;;68.93;43.00;;;3.10;99.90;;;;;;5160209;27;20857;-76
2024/03/07 06:56:44;;;;;;;62.77;37.70;;;3.10;99.90;;;;;;5178053;27;20875;-77
2024/03/07 06:59:15;;;;;;;64.23;43.40;;;3.20;99.90;;;;;;5159947;27;21024;-76
2024/03/07 07:01:45;;;;;;;61.50;40.73;;;3.20;99.90;;;;;;5160066;27;20437;-76
2024/03/07 07:04:15;;;;;;;63.13;40.63;;;3.20;99.90;;;;;;5159849;27;20449;-77
2024/03/07 07:06:46;;;;;;;62.13;43.67;;;3.30;99.90;;;;;;5159839;27;20535;-77
2024/03/07 07:09:18;;;;;;;62.17;41.30;;;3.30;99.90;;;;;;5159869;27;20527;-77
2024/03/07 07:11:47;;;;;;;58.60;42.43;;;3.30;99.90;;;;;;5161493;27;20445;-78
2024/03/07 07:14:19;;;;;;;55.97;38.33;;;3.40;99.90;;;;;;5162061;27;20448;-78
2024/03/07 07:16:47;;;;;;;56.23;38.87;;;3.40;99.90;;;;;;5162074;27;20543;-79
2024/03/07 07:19:16;;;;;;;57.00;40.73;;;3.40;99.90;;;;;;5161429;27;20876;-79
2024/03/07 07:21:49;;;;;;;59.00;38.57;;;3.50;99.90;;;;;;5160493;27;20447;-77
2024/03/07 07:24:18;;;;;;;53.03;38.00;;;3.50;99.90;;;;;;5161461;27;20436;-78
2024/03/07 07:26:49;;;;;;;59.57;36.93;;;3.50;99.90;;;;;;5180310;27;20416;-80
2024/03/07 07:29:19;;;;;;;55.73;38.93;;;3.60;99.90;;;;;;5161200;27;20552;-78
2024/03/07 07:31:48;;;;;;;51.63;37.47;;;3.60;99.90;;;;;;5160747;27;20445;-79
2024/03/07 07:34:17;;;;;;;53.93;40.57;;;3.70;99.90;;;;;;5161079;27;20444;-77
2024/03/07 07:36:50;;;;;;;54.90;40.53;;;3.70;99.90;;;;;;5161431;27;20957;-78
2024/03/07 07:39:21;;;;;;;55.20;36.20;;;3.70;99.90;;;;;;5179020;27;20448;-78
2024/03/07 07:41:49;;;;;;;52.20;36.63;;;3.80;99.90;;;;;;5160315;27;20554;-77
2024/03/07 07:44:19;;;;;;;48.33;36.60;;;3.80;99.90;;;;;;5160383;27;20452;-77
2024/03/07 07:46:49;;;;;;;49.93;37.90;;;3.80;99.90;;;;;;5160414;27;20472;-77
2024/03/07 07:49:19;;;;;;;56.63;37.40;;;3.90;99.90;;;;;;5160065;27;20468;-77
2024/03/07 07:51:53;;;;;;;52.43;35.27;;;3.90;99.90;;;;;;5159986;27;20437;-77
2024/03/07 07:54:26;;;;;;;51.63;36.23;;;4.00;99.90;;;;;;5159318;27;21016;-77
2024/03/07 07:56:54;;;;;;;52.97;39.60;;;4.00;99.90;;;;;;5159637;27;20433;-76
2024/03/07 07:59:22;;;;;;;47.53;36.43;;;4.10;99.90;;;;;;5178484;27;20456;-76
2024/03/07 08:01:55;;;;;;;53.60;39.20;;;4.10;99.90;;;;;;5158965;27;20519;-76
2024/03/07 08:04:24;;;;;;;47.07;36.63;;;4.20;99.90;;;;;;5159461;27;21022;-78
2024/03/07 08:06:56;;;;;;;54.70;38.63;;;4.20;99.90;;;;;;5159691;27;20437;-77
2024/03/07 08:09:25;;;;;;;46.10;34.73;;;4.30;99.90;;;;;;5158519;27;20465;-77
2024/03/07 08:11:53;;;;;;;53.27;36.63;;;4.30;99.90;;;;;;5159047;27;20492;-76
2024/03/07 08:14:28;;;;;;;54.27;36.40;;;4.30;99.90;;;;;;5159666;27;20456;-77
2024/03/07 08:16:58;;;;;;;52.03;38.40;;;4.40;99.90;;;;;;5177547;27;20507;-77
2024/03/07 08:19:26;;;;;;;51.17;38.03;;;4.50;99.90;;;;;;5158648;27;20472;-76
2024/03/07 08:21:59;;;;;;;53.70;39.43;;;4.50;99.90;;;;;;5158655;27;20440;-77
2024/03/07 08:24:28;;;;;;;54.00;39.30;;;4.60;99.90;;;;;;5158687;27;20535;-77
2024/03/07 08:26:56;;;;;;;54.90;39.00;;;4.60;99.90;;;;;;5159171;27;20466;-78
2024/03/07 08:29:33;;;;;;;50.40;39.10;;;4.60;99.90;;;;;;5112320;27;20939;-78
2024/03/07 08:32:02;;;;;;;50.10;39.40;;;4.60;99.90;;;;;;5113186;28;20486;-79
2024/03/07 08:34:31;;;;;;;51.20;37.70;;;4.70;99.90;;;;;;5112039;28;20443;-77
2024/03/07 08:37:03;;;;;;;47.20;38.43;;;4.70;99.90;;;;;;5112042;28;20453;-78
2024/03/07 08:39:32;;;;;;;51.33;38.33;;;4.70;99.90;;;;;;5110847;28;20467;-77
2024/03/07 08:42:05;;;;;;;52.03;39.00;;;4.80;99.90;;;;;;5110733;28;20440;-77
2024/03/07 08:44:37;;;;;;;51.23;38.30;;;4.80;99.90;;;;;;5111246;28;20432;-77
2024/03/07 08:47:05;;;;;;;45.90;37.67;;;4.90;99.90;;;;;;5112862;28;20451;-78
2024/03/07 08:49:34;;;;;;;48.50;39.67;;;4.90;99.90;;;;;;5110758;28;20514;-77
2024/03/07 08:52:03;;;;;;;50.53;37.97;;;5.00;99.90;;;;;;5110567;28;20447;-77
2024/03/07 08:54:33;;;;;;;47.13;36.93;;;5.10;99.90;;;;;;5109940;28;20822;-77
2024/03/07 08:57:01;;;;;;;48.17;39.67;;;5.10;99.90;;;;;;5109756;28;20452;-78
2024/03/07 08:59:30;;;;;;;43.23;36.37;;;5.20;99.90;;;;;;5111719;28;20462;-78
2024/03/07 09:02:02;;;;;;;45.87;39.23;;;5.40;99.90;;;;;;5110355;28;20441;-78
2024/03/07 09:04:32;;;;;;;46.43;38.10;;;5.50;99.90;;;;;;5110560;28;20445;-78
2024/03/07 09:07:00;;;;;;;44.13;36.23;;;5.60;99.90;;;;;;5110610;28;20450;-77
2024/03/07 09:09:29;;;;;;;43.07;37.30;;;5.70;99.90;;;;;;5109842;28;20556;-76
2024/03/07 09:11:57;;;;;;;34.70;31.00;;;5.80;99.90;;;;;;5109488;28;20531;-79
2024/03/07 09:14:28;;;;;;;36.33;32.63;;;5.90;99.90;;;;;;5110050;28;20443;-78
2024/03/07 09:16:59;;;;;;;35.80;31.60;;;5.90;99.90;;;;;;5109706;28;20466;-75
2024/03/07 09:19:28;;;;;;;32.03;28.63;;;5.90;99.90;;;;;;5112064;28;20544;-79
2024/03/07 09:21:56;;;;;;;33.07;28.33;;;5.80;99.90;;;;;;5109492;28;20468;-76
2024/03/07 09:24:29;;;;;;;34.73;30.90;;;5.80;99.90;;;;;;5109760;28;20447;-78
2024/03/07 09:26:58;;;;;;;34.87;31.17;;;5.80;99.90;;;;;;5110329;28;20494;-77
2024/03/07 09:29:27;;;;;;;38.10;33.90;;;5.80;99.90;;;;;;5109389;28;20480;-78
2024/03/07 09:31:57;;;;;;;37.77;33.77;;;5.80;99.90;;;;;;5109415;28;20447;-75
2024/03/07 09:34:27;;;;;;;40.63;36.23;;;5.80;99.90;;;;;;5110319;28;20445;-77
2024/03/07 09:36:56;;;;;;;39.00;34.73;;;5.90;99.90;;;;;;5109366;28;20452;-76
2024/03/07 09:39:24;;;;;;;39.73;35.73;;;5.90;99.90;;;;;;5103819;28;20469;-78
2024/03/07 09:41:55;;;;;;;41.63;37.07;;;5.90;99.90;;;;;;5097130;28;20432;-76
2024/03/07 09:44:27;;;;;;;37.07;33.10;;;5.90;99.90;;;;;;5095776;28;20440;-77
2024/03/07 09:47:00;;;;;;;39.63;35.50;;;5.90;99.90;;;;;;5095301;28;20936;-76
2024/03/07 09:49:30;;;;;;;36.50;32.47;;;5.90;99.90;;;;;;5097371;28;20477;-77
2024/03/07 09:52:03;;;;;;;36.70;32.97;;;5.90;99.90;;;;;;5095544;28;20453;-76
2024/03/07 09:54:31;;;;;;;34.93;30.93;;;6.00;99.90;;;;;;5095329;28;20450;-78
2024/03/07 09:57:02;;;;;;;32.10;28.80;;;6.00;99.90;;;;;;5095864;28;20473;-78
2024/03/07 09:59:36;;;;;;;36.20;31.03;;;6.00;99.90;;;;;;5096833;28;21032;-76
2024/03/07 10:02:09;;;;;;;30.80;27.63;;;6.00;99.90;;;;;;5096414;28;20548;-77
2024/03/07 10:04:45;;;;;;;31.40;27.20;;;6.00;99.90;;;;;;5096856;28;20428;-76
2024/03/07 10:07:13;;;;;;;29.73;25.57;;;6.00;99.90;;;;;;5095108;28;20432;-76
2024/03/07 10:09:43;;;;;;;29.63;26.63;;;6.00;99.90;;;;;;5094633;28;20836;-77
2024/03/07 10:12:15;;;;;;;31.27;27.90;;;6.00;99.90;;;;;;5094988;28;20531;-77
2024/03/07 10:14:50;;;;;;;32.97;27.63;;;6.00;99.90;;;;;;5095227;28;20511;-77
2024/03/07 10:17:19;;;;;;;33.00;29.50;;;6.00;99.90;;;;;;5095141;28;20494;-77
2024/03/07 10:19:53;;;;;;;30.30;25.60;;;6.00;99.90;;;;;;5095634;28;20573;-78
2024/03/07 10:22:21;;;;;;;32.43;29.00;;;6.00;99.90;;;;;;5095237;28;20449;-79
2024/03/07 10:24:53;;;;;;;31.93;26.67;;;6.00;99.90;;;;;;5095851;28;20468;-76
2024/03/07 10:27:27;;;;;;;28.73;25.63;;;6.00;99.90;;;;;;5094722;28;20545;-77
2024/03/07 10:29:56;;;;;;;31.13;27.93;;;6.00;99.90;;;;;;5095316;28;20472;-78
2024/03/07 10:32:25;;;;;;;32.67;28.93;;;6.00;99.90;;;;;;5095167;28;20453;-78
2024/03/07 10:34:58;;;;;;;30.27;27.17;;;6.00;99.90;;;;;;5095099;28;20450;-76
2024/03/07 10:37:27;;;;;;;30.53;27.23;;;6.00;99.90;;;;;;5094626;28;20493;-76
2024/03/07 10:39:56;;;;;;;30.13;27.03;;;6.00;99.90;;;;;;5094376;28;20855;-76
2024/03/07 10:42:30;;;;;;;30.80;27.70;;;6.00;99.90;;;;;;5094905;28;20477;-77
2024/03/07 10:45:05;;;;;;;32.33;29.03;;;6.10;99.90;;;;;;5094810;28;20445;-79
2024/03/07 10:47:37;;;;;;;30.23;26.73;;;6.10;99.90;;;;;;5095989;28;20519;-77
2024/03/07 10:50:18;;;;;;;31.10;28.20;;;6.10;99.90;;;;;;5094680;28;20573;-77
2024/03/07 10:52:52;;;;;;;30.37;27.07;;;6.10;99.90;;;;;;5094250;28;20450;-77
2024/03/07 10:55:32;;;;;;;27.87;24.70;;;6.10;99.90;;;;;;5094497;28;20479;-77
2024/03/07 10:58:10;;;;;;;29.90;26.97;;;6.10;99.90;;;;;;5094192;28;20448;-77
2024/03/07 11:00:45;;;;;;;30.13;27.13;;;6.10;99.90;;;;;;5094120;28;20456;-77
2024/03/07 11:03:20;;;;;;;29.87;26.77;;;6.10;99.90;;;;;;5094609;28;20448;-76
2024/03/07 11:05:53;;;;;;;31.43;27.97;;;6.10;99.90;;;;;;5094252;28;20453;-78
2024/03/07 11:08:23;;;;;;;31.07;27.80;;;6.10;99.90;;;;;;5094950;28;20468;-78
2024/03/07 11:10:52;;;;;;;29.47;26.60;;;6.10;99.90;;;;;;5093983;28;20481;-77
2024/03/07 11:13:21;;;;;;;31.43;28.03;;;6.10;99.90;;;;;;5094230;28;20453;-77
2024/03/07 11:15:57;;;;;;;29.47;26.70;;;6.10;99.90;;;;;;5093942;28;20792;-76
2024/03/07 11:18:29;;;;;;;29.07;26.00;;;6.10;99.90;;;;;;5093633;28;20469;-76
2024/03/07 11:20:59;;;;;;;31.17;27.83;;;6.20;99.90;;;;;;5094199;28;20451;-78
2024/03/07 11:23:30;;;;;;;29.40;26.40;;;6.10;99.90;;;;;;5094201;28;20536;-77
2024/03/07 11:26:08;;;;;;;29.53;26.73;;;6.10;99.90;;;;;;5093600;28;20506;-77
2024/03/07 11:28:38;;;;;;;27.47;24.63;;;6.10;99.90;;;;;;5093233;28;20504;-76
2024/03/07 11:31:14;;;;;;;27.07;24.17;;;6.10;99.90;;;;;;5093503;28;20461;-77
2024/03/07 11:33:43;;;;;;;26.50;23.80;;;6.10;99.90;;;;;;5094120;28;20466;-78
2024/03/07 11:36:34;;;;;;;25.97;23.60;;;6.10;99.90;;;;;;5095454;28;20506;-78
2024/03/07 11:39:24;;;;;;;24.10;21.70;;;6.10;99.90;;;;;;5093325;28;20503;-79
2024/03/07 11:41:53;;;;;;;26.10;22.53;;;6.00;99.90;;;;;;5094101;28;20495;-78
2024/03/07 11:44:22;;;;;;;26.47;23.90;;;6.00;99.90;;;;;;5093065;28;20447;-78
2024/03/07 11:46:51;;;;;;;23.43;21.07;;;6.00;99.90;;;;;;5093715;28;20506;-78
2024/03/07 11:49:20;;;;;;;23.53;21.07;;;6.00;99.90;;;;;;5093239;28;20471;-77
2024/03/07 11:51:52;;;;;;;24.70;22.40;;;6.00;99.90;;;;;;5095456;28;20426;-77
2024/03/07 11:54:24;;;;;;;21.73;19.43;;;6.00;99.90;;;;;;5093963;28;20868;-78
2024/03/07 11:56:56;;;;;;;23.20;21.00;;;6.00;99.90;;;;;;5093409;28;20536;-76
2024/03/07 11:59:32;;;;;;;20.87;18.70;;;6.00;99.90;;;;;;5093138;28;20472;-78
2024/03/07 12:02:01;;;;;;;19.70;17.73;;;5.90;99.90;;;;;;5094916;28;20420;-77
2024/03/07 12:04:29;;;;;;;21.33;19.27;;;5.90;99.90;;;;;;5094298;28;20829;-78
2024/03/07 12:07:00;;;;;;;21.77;19.70;;;5.90;99.90;;;;;;5093759;28;20452;-79
2024/03/07 12:09:28;;;;;;;21.43;19.47;;;5.90;99.90;;;;;;5092914;28;20468;-77
2024/03/07 12:11:59;;;;;;;22.73;20.70;;;5.80;99.90;;;;;;5093031;28;20445;-77
2024/03/07 12:14:29;;;;;;;21.73;19.63;;;5.90;99.90;;;;;;5093357;28;20538;-78
2024/03/07 12:16:58;;;;;;;22.43;20.20;;;5.90;99.90;;;;;;5092776;28;20444;-77
2024/03/07 12:19:26;;;;;;;22.20;19.80;;;5.90;99.90;;;;;;5092682;28;21051;-76
2024/03/07 12:22:04;;;;;;;20.77;18.77;;;5.90;99.90;;;;;;5093123;28;20450;-78
2024/03/07 12:24:33;;;;;;;20.60;18.30;;;5.90;99.90;;;;;;5095377;28;20430;-79
2024/03/07 12:27:08;;;;;;;20.17;18.17;;;5.80;99.90;;;;;;5094482;28;20457;-79
2024/03/07 12:29:39;;;;;;;22.00;19.70;;;5.90;99.90;;;;;;5093215;28;20550;-77
2024/03/07 12:32:10;;;;;;;21.50;19.30;;;5.90;99.90;;;;;;5092663;28;20558;-77
2024/03/07 12:34:40;;;;;;;20.07;18.07;;;5.90;99.90;;;;;;5093914;28;20529;-76
2024/03/07 12:37:10;;;;;;;22.80;20.50;;;5.90;99.90;;;;;;5092575;28;20972;-77
2024/03/07 12:39:46;;;;;;;21.70;19.60;;;5.90;99.90;;;;;;5092601;28;20483;-76
2024/03/07 12:42:18;;;;;;;20.80;18.73;;;6.00;99.90;;;;;;5092348;28;20446;-76
2024/03/07 12:44:47;;;;;;;18.73;16.77;;;6.00;99.90;;;;;;5092472;28;20451;-77
2024/03/07 12:47:16;;;;;;;19.90;17.97;;;6.10;99.90;;;;;;5092437;28;20453;-79
2024/03/07 12:49:45;;;;;;;19.40;17.57;;;6.10;99.90;;;;;;5092216;28;20536;-77